Donald, Wisconsin
Current Conditions -  °F | °C
As of 2:15 PM on Friday 28 Nov 2014 (Local Time) from KRCX Reporting Station
Light Snow Light Snow  
Wind Chill: 10°   Ceiling: 1000
Heat Index: 18°   Visibility: 1.7mi
Dew Point: 13°   Wind: 6mph
Humidity: 81%   Direction: 140°SE
Pressure: 29.91"   Gusts: NA
Location:  45.2123°N, 90.8091°W
Report Text: KRCX 282015Z AUTO 14005KT 1 3/4SM -SN BKN010 BKN014 OVC020 M08/M10 A2991 RMK AO2 T10771105
Loading
Personal Weather Stations






























Interactive Weather Map New forecast layout! Learn more

10-Day Weather Forecast

Advertisements
Track Severe Weather on mobile